createdAt,value
2022-11-10T00:02:20.897Z,10.40
2022-11-10T00:05:06.495Z,9.10
2022-11-10T00:07:51.674Z,13.20
2022-11-10T00:10:57.098Z,12.60
2022-11-10T00:14:00.924Z,10.30
2022-11-10T00:17:01.548Z,14.02
2022-11-10T00:19:46.781Z,12.73
2022-11-10T00:22:34.176Z,17.67
2022-11-10T00:25:19.650Z,13.40
2022-11-10T00:28:05.137Z,11.95
2022-11-10T00:30:50.318Z,15.60
2022-11-10T00:33:37.903Z,11.88
2022-11-10T00:36:23.855Z,8.27
2022-11-10T00:39:09.914Z,13.93
2022-11-10T00:41:55.568Z,13.60
2022-11-10T00:44:41.321Z,16.35
2022-11-10T00:47:26.763Z,13.43
2022-11-10T00:50:12.361Z,11.43
2022-11-10T00:52:57.526Z,27.10
2022-11-10T00:55:42.733Z,14.48
2022-11-10T00:58:27.998Z,17.35
2022-11-10T01:01:14.416Z,14.60
2022-11-10T01:03:59.882Z,11.35
2022-11-10T01:06:47.838Z,12.45
2022-11-10T01:09:32.973Z,18.42
2022-11-10T01:12:18.574Z,18.00
2022-11-10T01:15:04.712Z,17.52
2022-11-10T01:17:51.166Z,14.70
2022-11-10T01:20:36.717Z,15.85
2022-11-10T01:23:22.160Z,18.75
2022-11-10T01:26:08.711Z,20.60
2022-11-10T01:28:54.005Z,13.95
2022-11-10T01:31:39.633Z,14.02
2022-11-10T01:34:24.919Z,16.48
2022-11-10T01:37:11.958Z,13.68
2022-11-10T01:39:57.333Z,19.20
2022-11-10T01:42:51.664Z,19.67
2022-11-10T01:45:46.079Z,13.60
2022-11-10T01:48:45.613Z,18.27
2022-11-10T01:51:58.851Z,16.20
2022-11-10T01:54:47.656Z,16.40
2022-11-10T01:57:33.407Z,14.45
2022-11-10T02:00:19.783Z,17.10
2022-11-10T02:03:25.188Z,10.95
2022-11-10T02:06:11.464Z,13.98
2022-11-10T02:08:58.507Z,17.98
2022-11-10T02:11:45.062Z,11.07
2022-11-10T02:14:30.679Z,17.77
2022-11-10T02:17:16.549Z,13.40
2022-11-10T02:20:04.858Z,14.27
2022-11-10T02:22:50.143Z,17.70
2022-11-10T02:25:36.082Z,19.83
2022-11-10T02:28:21.758Z,16.75
2022-11-10T02:31:09.256Z,14.80
2022-11-10T02:33:54.612Z,19.98
2022-11-10T02:36:40.134Z,17.70
2022-11-10T02:39:26.646Z,23.73
2022-11-10T02:42:12.216Z,18.33
2022-11-10T02:44:57.844Z,15.75
2022-11-10T02:47:43.193Z,17.25
2022-11-10T02:50:28.338Z,18.80
2022-11-10T02:53:13.746Z,21.13
2022-11-10T02:55:59.618Z,21.38
2022-11-10T02:58:44.805Z,20.70
2022-11-10T03:01:30.459Z,20.25
2022-11-10T03:04:15.798Z,17.27
2022-11-10T03:07:01.435Z,14.68
2022-11-10T03:09:47.035Z,24.15
2022-11-10T03:12:32.444Z,19.95
2022-11-10T03:15:17.923Z,17.98
2022-11-10T03:18:04.821Z,22.98
2022-11-10T03:20:50.420Z,28.05
2022-11-10T03:23:36.520Z,19.17
2022-11-10T03:26:22.348Z,20.55
2022-11-10T03:29:07.844Z,19.23
2022-11-10T03:31:53.606Z,23.30
2022-11-10T03:34:39.179Z,18.52
2022-11-10T03:37:24.499Z,32.03
2022-11-10T03:40:10.500Z,24.08
2022-11-10T03:42:55.751Z,28.13
2022-11-10T03:45:44.679Z,42.70
2022-11-10T03:48:30.089Z,38.35
2022-11-10T03:51:15.314Z,24.88
2022-11-10T03:54:00.442Z,30.90
2022-11-10T03:56:45.698Z,24.35
2022-11-10T03:59:31.332Z,24.85
2022-11-10T04:02:16.846Z,31.05
2022-11-10T04:05:21.170Z,26.48
2022-11-10T04:08:31.901Z,23.50
2022-11-10T04:11:37.350Z,19.88
2022-11-10T04:14:41.478Z,23.90
2022-11-10T04:17:26.970Z,32.65
2022-11-10T04:20:15.314Z,26.17
2022-11-10T04:23:19.357Z,26.60
2022-11-10T04:26:28.560Z,27.58
2022-11-10T04:29:16.582Z,28.23
2022-11-10T04:32:02.067Z,27.48
2022-11-10T04:34:47.169Z,29.85
2022-11-10T04:37:32.733Z,24.52
2022-11-10T04:40:18.153Z,29.80
2022-11-10T04:43:03.410Z,32.67
2022-11-10T04:45:49.218Z,25.60
2022-11-10T04:48:35.277Z,27.63
2022-11-10T04:51:23.948Z,32.17
2022-11-10T04:54:10.746Z,24.38
2022-11-10T04:56:55.849Z,28.00
2022-11-10T04:59:41.366Z,28.83
2022-11-10T05:02:26.601Z,38.95
2022-11-10T05:05:12.691Z,32.85
2022-11-10T05:07:58.380Z,28.50
2022-11-10T05:10:43.883Z,30.27
2022-11-10T05:13:29.127Z,35.72
2022-11-10T05:16:14.817Z,31.88
2022-11-10T05:19:00.470Z,24.83
2022-11-10T05:21:45.743Z,29.20
2022-11-10T05:24:30.839Z,29.15
2022-11-10T05:27:16.308Z,22.98
2022-11-10T05:30:01.611Z,26.27
2022-11-10T05:32:47.534Z,23.42
2022-11-10T05:35:33.903Z,26.00
2022-11-10T05:38:19.357Z,23.60
2022-11-10T05:41:05.026Z,22.30
2022-11-10T05:43:50.355Z,21.02
2022-11-10T05:46:35.865Z,17.83
2022-11-10T05:49:21.639Z,24.23
2022-11-10T05:52:07.225Z,26.67
2022-11-10T05:54:55.287Z,19.75
2022-11-10T05:57:48.027Z,25.80
2022-11-10T06:00:33.884Z,24.75
2022-11-10T06:03:20.410Z,18.05
2022-11-10T06:06:06.221Z,22.73
2022-11-10T06:08:52.082Z,21.73
2022-11-10T06:11:37.781Z,24.50
2022-11-10T06:14:23.643Z,30.02
2022-11-10T06:17:08.901Z,26.13
2022-11-10T06:19:54.423Z,24.40
2022-11-10T06:22:40.246Z,18.52
2022-11-10T06:25:26.012Z,22.83
2022-11-10T06:28:11.576Z,19.85
2022-11-10T06:30:58.575Z,22.75
2022-11-10T06:33:43.742Z,19.10
2022-11-10T06:36:29.222Z,23.85
2022-11-10T06:39:14.662Z,20.40
2022-11-10T06:42:00.253Z,15.77
2022-11-10T06:44:45.353Z,25.55
2022-11-10T06:47:30.789Z,19.02
2022-11-10T06:50:17.094Z,19.88
2022-11-10T06:53:02.929Z,17.90
2022-11-10T06:55:48.473Z,18.55
2022-11-10T06:58:33.700Z,21.65
2022-11-10T07:01:22.635Z,19.63
2022-11-10T07:04:23.581Z,20.55
2022-11-10T07:07:09.650Z,23.42
2022-11-10T07:09:55.332Z,25.88
2022-11-10T07:12:40.800Z,19.65
2022-11-10T07:15:26.460Z,26.55
2022-11-10T07:18:12.088Z,22.73
2022-11-10T07:20:57.230Z,26.20
2022-11-10T07:23:42.679Z,21.67
2022-11-10T07:26:28.354Z,23.10
2022-11-10T07:29:13.846Z,26.02
2022-11-10T07:31:59.450Z,22.75
2022-11-10T07:34:44.844Z,24.67
2022-11-10T07:37:29.962Z,21.27
2022-11-10T07:40:15.515Z,22.02
2022-11-10T07:43:00.733Z,26.17
2022-11-10T07:45:45.882Z,20.45
2022-11-10T07:48:32.673Z,17.85
2022-11-10T07:51:18.211Z,30.83
2022-11-10T07:54:03.970Z,21.52
2022-11-10T07:56:49.422Z,19.92
2022-11-10T07:59:34.933Z,20.42
2022-11-10T08:02:20.087Z,20.35
2022-11-10T08:05:05.885Z,20.63
2022-11-10T08:07:52.879Z,13.90
2022-11-10T08:10:38.869Z,19.92
2022-11-10T08:13:24.995Z,17.55
2022-11-10T08:16:10.460Z,16.83
2022-11-10T08:18:55.614Z,19.20
2022-11-10T08:21:41.135Z,18.50
2022-11-10T08:24:26.342Z,20.67
2022-11-10T08:27:11.868Z,24.38
2022-11-10T08:29:57.037Z,23.70
2022-11-10T08:32:42.300Z,15.82
2022-11-10T08:35:30.192Z,21.52
2022-11-10T08:38:21.071Z,18.23
2022-11-10T08:41:06.600Z,11.95
2022-11-10T08:43:51.995Z,22.48
2022-11-10T08:46:37.302Z,18.85
2022-11-10T08:49:22.600Z,12.32
2022-11-10T08:52:08.825Z,14.95
2022-11-10T08:54:54.334Z,22.40
2022-11-10T08:57:39.725Z,22.02
2022-11-10T09:00:24.809Z,17.30
2022-11-10T09:03:21.754Z,21.23
2022-11-10T09:06:07.498Z,27.63
2022-11-10T09:08:52.982Z,20.40
2022-11-10T09:11:39.698Z,14.75
2022-11-10T09:14:24.868Z,15.60
2022-11-10T09:17:10.275Z,13.35
2022-11-10T09:19:55.493Z,17.65
2022-11-10T09:22:40.785Z,14.20
2022-11-10T09:25:25.899Z,17.30
2022-11-10T09:28:13.779Z,14.23
2022-11-10T09:31:00.395Z,14.25
2022-11-10T09:33:45.845Z,18.20
2022-11-10T09:36:31.015Z,14.98
2022-11-10T09:39:16.386Z,15.07
2022-11-10T09:42:01.820Z,14.85
2022-11-10T09:44:54.878Z,16.77
2022-11-10T09:50:52.703Z,13.95
2022-11-10T09:53:43.627Z,16.80
2022-11-10T09:56:35.119Z,21.73
2022-11-10T09:59:26.846Z,16.63
2022-11-10T10:02:37.914Z,21.20
2022-11-10T10:05:41.475Z,10.60
2022-11-10T10:08:32.710Z,17.90
2022-11-10T10:11:41.173Z,16.88
2022-11-10T10:14:38.374Z,15.43
2022-11-10T10:18:00.421Z,16.63
2022-11-10T10:21:09.918Z,11.57
2022-11-10T10:24:21.219Z,14.13
2022-11-10T10:27:06.748Z,16.80
2022-11-10T10:29:53.018Z,14.25
2022-11-10T10:32:38.188Z,14.48
2022-11-10T10:35:23.525Z,13.40
2022-11-10T10:38:32.245Z,16.45
2022-11-10T10:41:26.046Z,13.48
2022-11-10T10:44:20.122Z,15.55
2022-11-10T10:47:05.613Z,13.60
2022-11-10T10:49:51.087Z,15.52
2022-11-10T10:52:36.666Z,14.20
2022-11-10T10:55:28.006Z,16.02
2022-11-10T10:58:23.825Z,10.48
2022-11-10T11:01:15.582Z,13.82
2022-11-10T11:04:05.111Z,14.10
2022-11-10T11:06:58.381Z,16.08
2022-11-10T11:09:45.100Z,15.35
2022-11-10T11:12:33.829Z,15.52
2022-11-10T11:15:28.299Z,16.98
2022-11-10T11:18:16.458Z,17.10
2022-11-10T11:21:20.590Z,9.27
2022-11-10T11:24:54.671Z,17.88
2022-11-10T11:27:57.023Z,13.60
2022-11-10T11:31:14.166Z,14.18
2022-11-10T11:34:27.486Z,15.13
2022-11-10T11:40:43.281Z,9.75
2022-11-10T11:43:31.779Z,14.77
2022-11-10T11:46:22.095Z,8.07
2022-11-10T11:49:26.045Z,15.52
2022-11-10T11:52:34.600Z,16.83
2022-11-10T11:55:25.613Z,17.77
2022-11-10T11:58:38.431Z,15.93
2022-11-10T12:01:36.370Z,11.27
2022-11-10T12:04:51.866Z,14.68
2022-11-10T12:07:57.742Z,13.80
2022-11-10T12:11:04.941Z,15.18
2022-11-10T12:14:25.558Z,16.40
2022-11-10T12:17:26.828Z,12.20
2022-11-10T12:20:33.867Z,11.88
2022-11-10T12:23:34.439Z,12.90
2022-11-10T12:26:25.435Z,13.55
2022-11-10T12:29:31.841Z,19.45
2022-11-10T12:32:37.293Z,14.85
2022-11-10T12:35:26.859Z,14.48
2022-11-10T12:38:16.378Z,11.85
2022-11-10T12:41:07.605Z,15.13
2022-11-10T12:44:16.598Z,12.93
2022-11-10T12:47:07.101Z,13.57
2022-11-10T12:50:19.293Z,9.50
2022-11-10T12:53:24.124Z,14.40
2022-11-10T12:56:20.439Z,15.40
2022-11-10T12:59:21.049Z,16.95
2022-11-10T13:02:24.354Z,11.68
2022-11-10T13:05:30.384Z,9.85
2022-11-10T13:08:43.689Z,10.18
2022-11-10T13:11:36.326Z,12.95
2022-11-10T13:14:31.339Z,17.70
2022-11-10T13:17:28.951Z,16.60
2022-11-10T13:20:39.309Z,12.63
2022-11-10T13:23:48.835Z,17.88
2022-11-10T13:26:40.472Z,15.02
2022-11-10T13:29:34.682Z,13.02
2022-11-10T13:32:31.450Z,16.77
2022-11-10T13:35:28.705Z,11.95
2022-11-10T13:38:41.904Z,12.10
2022-11-10T13:41:27.396Z,15.35
2022-11-10T13:44:40.163Z,11.88
2022-11-10T13:47:56.082Z,9.27
2022-11-10T13:50:41.347Z,13.82
2022-11-10T13:53:32.594Z,15.07
2022-11-10T13:56:57.885Z,10.90
2022-11-10T13:59:52.530Z,13.80
2022-11-10T14:02:48.371Z,14.52
2022-11-10T14:05:41.923Z,16.00
2022-11-10T14:08:30.960Z,13.43
2022-11-10T14:11:25.295Z,15.65
2022-11-10T14:14:14.571Z,17.88
2022-11-10T14:17:00.552Z,16.42
2022-11-10T14:19:47.261Z,20.48
2022-11-10T14:22:41.701Z,11.95
2022-11-10T14:25:36.065Z,14.70
2022-11-10T14:28:37.420Z,20.38
2022-11-10T14:31:25.693Z,13.70
2022-11-10T14:34:16.949Z,12.48
2022-11-10T14:37:04.186Z,13.90
2022-11-10T14:39:55.759Z,10.07
2022-11-10T14:42:41.191Z,10.68
2022-11-10T14:45:27.981Z,14.65
2022-11-10T14:48:20.508Z,12.88
2022-11-10T14:53:55.383Z,11.63
2022-11-10T14:56:42.514Z,16.45
2022-11-10T14:59:27.974Z,12.35
2022-11-10T15:02:19.354Z,9.55
2022-11-10T15:05:05.292Z,11.25
2022-11-10T15:07:56.202Z,15.60
2022-11-10T15:10:41.491Z,12.30
2022-11-10T15:13:33.285Z,10.75
2022-11-10T15:16:21.942Z,10.87
2022-11-10T15:19:27.266Z,16.00
2022-11-10T15:22:26.073Z,11.77
2022-11-10T15:25:17.029Z,8.63
2022-11-10T15:28:06.634Z,10.55
2022-11-10T15:30:55.136Z,11.25
2022-11-10T15:33:46.907Z,11.07
2022-11-10T15:36:39.452Z,10.10
2022-11-10T15:39:27.015Z,12.52
2022-11-10T15:42:23.719Z,7.57
2022-11-10T15:45:09.477Z,10.88
2022-11-10T15:47:56.030Z,11.57
2022-11-10T15:50:43.662Z,7.05
2022-11-10T15:53:37.293Z,11.07
2022-11-10T15:56:24.720Z,11.65
2022-11-10T15:59:10.864Z,18.98
2022-11-10T16:01:57.152Z,11.73
2022-11-10T16:04:42.615Z,12.23
2022-11-10T16:07:27.803Z,8.07
2022-11-10T16:10:13.223Z,13.05
2022-11-10T16:12:58.396Z,10.93
2022-11-10T16:15:45.462Z,12.15
2022-11-10T16:18:30.794Z,9.18
2022-11-10T16:21:20.833Z,4.70
2022-11-10T16:24:06.434Z,10.55
2022-11-10T16:26:52.071Z,11.10
2022-11-10T16:29:38.004Z,7.40
2022-11-10T16:32:23.447Z,9.90
2022-11-10T16:35:13.778Z,10.77
2022-11-10T16:37:58.858Z,6.95
2022-11-10T16:40:44.894Z,8.30
2022-11-10T16:43:31.716Z,11.30
2022-11-10T16:46:23.616Z,9.77
2022-11-10T16:49:23.298Z,10.30
2022-11-10T16:52:14.071Z,12.32
2022-11-10T16:54:59.658Z,13.52
2022-11-10T16:57:45.164Z,9.68
2022-11-10T17:00:30.590Z,10.05
2022-11-10T17:03:18.299Z,8.93
2022-11-10T17:06:05.268Z,9.02
2022-11-10T17:08:53.169Z,11.85
2022-11-10T17:11:38.538Z,9.98
2022-11-10T17:14:24.443Z,6.93
2022-11-10T17:17:19.459Z,9.95
2022-11-10T17:20:06.260Z,6.40
2022-11-10T17:22:52.865Z,7.72
2022-11-10T17:25:38.933Z,6.97
2022-11-10T17:28:24.223Z,8.70
2022-11-10T17:31:13.800Z,11.23
2022-11-10T17:33:59.048Z,6.38
2022-11-10T17:36:44.615Z,11.90
2022-11-10T17:39:30.627Z,8.07
2022-11-10T17:42:15.985Z,17.45
2022-11-10T17:45:01.869Z,4.45
2022-11-10T17:47:48.781Z,8.80
2022-11-10T17:50:36.709Z,6.07
2022-11-10T17:53:25.153Z,12.13
2022-11-10T17:56:10.848Z,5.95
2022-11-10T17:58:56.472Z,9.85
2022-11-10T18:01:42.369Z,7.32
2022-11-10T18:04:27.968Z,7.53
2022-11-10T18:07:13.710Z,6.85
2022-11-10T18:09:59.217Z,10.00
2022-11-10T18:12:45.210Z,7.13
2022-11-10T18:15:31.414Z,5.75
2022-11-10T18:18:18.114Z,8.75
2022-11-10T18:21:04.802Z,6.90
2022-11-10T18:23:50.424Z,10.60
2022-11-10T18:26:35.987Z,4.05
2022-11-10T18:29:21.686Z,9.07
2022-11-10T18:32:07.271Z,12.73
2022-11-10T18:34:52.664Z,6.82
2022-11-10T18:37:39.345Z,4.93
2022-11-10T18:40:25.442Z,8.13
2022-11-10T18:43:10.895Z,7.40
2022-11-10T18:45:56.283Z,5.70
2022-11-10T18:48:42.416Z,9.05
2022-11-10T18:51:27.838Z,12.30
2022-11-10T18:54:13.729Z,7.28
2022-11-10T18:56:59.239Z,7.90
2022-11-10T18:59:46.072Z,11.27
2022-11-10T19:02:31.592Z,4.80
2022-11-10T19:05:17.392Z,8.38
2022-11-10T19:08:03.502Z,8.75
2022-11-10T19:10:48.795Z,9.32
2022-11-10T19:13:34.464Z,4.63
2022-11-10T19:16:20.425Z,9.48
2022-11-10T19:19:06.025Z,9.38
2022-11-10T19:21:51.585Z,7.35
2022-11-10T19:24:53.740Z,8.95
2022-11-10T19:27:42.014Z,7.07
2022-11-10T19:30:27.289Z,9.40
2022-11-10T19:33:14.948Z,6.63
2022-11-10T19:36:05.957Z,7.80
2022-11-10T19:38:53.304Z,6.85
2022-11-10T19:41:38.827Z,3.88
2022-11-10T19:44:24.511Z,4.88
2022-11-10T19:47:10.382Z,6.47
2022-11-10T19:49:55.995Z,6.38
2022-11-10T19:52:41.313Z,4.85
2022-11-10T19:55:26.596Z,7.57
2022-11-10T19:58:11.810Z,4.90
2022-11-10T20:00:57.141Z,10.38
2022-11-10T20:03:43.192Z,5.03
2022-11-10T20:06:28.793Z,7.57
2022-11-10T20:09:14.446Z,7.10
2022-11-10T20:12:00.103Z,5.57
2022-11-10T20:14:45.385Z,14.45
2022-11-10T20:17:30.672Z,7.78
2022-11-10T20:20:16.747Z,8.27
2022-11-10T20:23:03.444Z,7.93
2022-11-10T20:25:48.888Z,7.63
2022-11-10T20:28:37.280Z,9.48
2022-11-10T20:31:25.914Z,9.30
2022-11-10T20:34:11.375Z,16.55
2022-11-10T20:36:56.905Z,8.57
2022-11-10T20:39:42.395Z,7.75
2022-11-10T20:42:27.940Z,14.38
2022-11-10T20:45:13.553Z,8.88
2022-11-10T20:47:59.182Z,11.52
2022-11-10T20:50:44.803Z,10.00
2022-11-10T20:53:30.055Z,8.80
2022-11-10T20:56:16.535Z,9.30
2022-11-10T20:59:02.419Z,8.82
2022-11-10T21:01:47.938Z,6.75
2022-11-10T21:04:33.361Z,7.00
2022-11-10T21:07:20.813Z,11.50
2022-11-10T21:10:06.576Z,7.68
2022-11-10T21:12:52.068Z,11.65
2022-11-10T21:15:39.274Z,12.30
2022-11-10T21:18:31.017Z,5.65
2022-11-10T21:21:28.052Z,4.60
2022-11-10T21:24:13.819Z,7.60
2022-11-10T21:26:59.820Z,9.32
2022-11-10T21:29:45.621Z,8.38
2022-11-10T21:32:31.294Z,9.23
2022-11-10T21:35:17.335Z,5.38
2022-11-10T21:38:04.713Z,10.80
2022-11-10T21:40:49.837Z,11.32
2022-11-10T21:43:35.568Z,12.00
2022-11-10T21:46:20.929Z,8.25
2022-11-10T21:49:07.904Z,9.27
2022-11-10T21:51:53.523Z,8.38
2022-11-10T21:54:38.938Z,7.43
2022-11-10T21:57:24.845Z,10.98
2022-11-10T22:00:11.937Z,7.63
2022-11-10T22:03:01.571Z,6.10
2022-11-10T22:05:46.680Z,7.40
2022-11-10T22:08:32.973Z,9.30
2022-11-10T22:11:38.894Z,9.77
2022-11-10T22:14:43.483Z,8.80
2022-11-10T22:17:47.554Z,10.48
2022-11-10T22:20:34.290Z,8.70
2022-11-10T22:23:39.714Z,10.68
2022-11-10T22:26:25.251Z,8.82
2022-11-10T22:29:10.681Z,7.85
2022-11-10T22:31:56.290Z,7.88
2022-11-10T22:34:41.889Z,10.07
2022-11-10T22:37:33.168Z,12.15
2022-11-10T22:40:36.885Z,9.13
2022-11-10T22:43:40.992Z,9.98
2022-11-10T22:46:26.524Z,9.98
2022-11-10T22:49:14.230Z,10.65
2022-11-10T22:52:01.043Z,7.70
2022-11-10T22:54:46.658Z,11.80
2022-11-10T22:57:32.137Z,9.73
2022-11-10T23:00:18.272Z,10.73
2022-11-10T23:03:03.984Z,6.85
2022-11-10T23:05:56.271Z,13.93
2022-11-10T23:08:42.832Z,6.13
2022-11-10T23:11:30.166Z,7.97
2022-11-10T23:14:15.467Z,8.93
2022-11-10T23:17:01.182Z,7.60
2022-11-10T23:19:48.110Z,8.73
2022-11-10T23:22:33.568Z,10.65
2022-11-10T23:25:18.969Z,9.52
2022-11-10T23:28:04.372Z,8.55
2022-11-10T23:30:49.952Z,11.80
2022-11-10T23:33:36.771Z,10.77
2022-11-10T23:36:24.119Z,13.35
2022-11-10T23:39:09.534Z,8.63
2022-11-10T23:41:54.856Z,11.63
2022-11-10T23:44:40.263Z,13.45
2022-11-10T23:47:25.572Z,13.38
2022-11-10T23:50:10.967Z,11.50
2022-11-10T23:52:56.540Z,12.15
2022-11-10T23:55:42.196Z,13.35
2022-11-10T23:58:28.338Z,10.65
